createdAt,value
2017-12-03T00:00:29.982Z,0.60
2017-12-03T00:02:57.484Z,0.60
2017-12-03T00:05:25.727Z,0.60
2017-12-03T00:07:53.227Z,0.50
2017-12-03T00:10:21.479Z,0.60
2017-12-03T00:12:48.975Z,0.60
2017-12-03T00:15:16.463Z,0.70
2017-12-03T00:17:44.733Z,0.70
2017-12-03T00:20:12.220Z,0.70
2017-12-03T00:22:40.491Z,0.80
2017-12-03T00:25:07.972Z,0.70
2017-12-03T00:27:35.473Z,0.70
2017-12-03T00:30:02.958Z,0.80
2017-12-03T00:32:30.463Z,0.70
2017-12-03T00:34:57.944Z,0.70
2017-12-03T00:37:25.447Z,0.70
2017-12-03T00:39:52.936Z,0.60
2017-12-03T00:42:20.444Z,0.60
2017-12-03T00:44:47.936Z,0.70
2017-12-03T00:47:16.199Z,0.70
2017-12-03T00:49:43.679Z,0.60
2017-12-03T00:52:11.183Z,0.70
2017-12-03T00:54:38.674Z,0.70
2017-12-03T00:57:06.182Z,0.70
2017-12-03T00:59:33.667Z,0.70
2017-12-03T01:02:01.167Z,0.70
2017-12-03T01:04:28.650Z,0.70
2017-12-03T01:06:56.919Z,0.60
2017-12-03T01:09:25.163Z,0.60
2017-12-03T01:11:52.662Z,0.50
2017-12-03T01:14:20.911Z,0.70
2017-12-03T01:16:48.415Z,0.60
2017-12-03T01:19:15.897Z,0.70
2017-12-03T01:21:44.160Z,0.80
2017-12-03T01:24:11.660Z,0.70
2017-12-03T01:26:39.172Z,0.80
2017-12-03T01:29:06.655Z,0.80
2017-12-03T01:31:34.154Z,0.80
2017-12-03T01:34:02.412Z,0.70
2017-12-03T01:36:29.912Z,0.60
2017-12-03T01:38:57.391Z,0.70
2017-12-03T01:41:25.659Z,0.70
2017-12-03T01:43:53.151Z,0.60
2017-12-03T01:46:20.656Z,0.70
2017-12-03T01:48:48.143Z,0.60
2017-12-03T01:51:15.650Z,0.60
2017-12-03T01:53:43.161Z,0.70
2017-12-03T01:56:10.655Z,0.70
2017-12-03T01:58:38.160Z,0.70
2017-12-03T02:01:05.648Z,0.70
2017-12-03T02:03:33.923Z,0.80
2017-12-03T02:06:02.186Z,0.80
2017-12-03T02:08:29.688Z,0.70
2017-12-03T02:10:57.944Z,0.70
2017-12-03T02:13:25.447Z,0.70
2017-12-03T02:15:53.695Z,0.70
2017-12-03T02:18:21.203Z,0.70
2017-12-03T02:20:49.452Z,0.80
2017-12-03T02:23:16.959Z,0.70
2017-12-03T02:25:45.227Z,0.80
2017-12-03T02:28:12.744Z,0.70
2017-12-03T02:30:40.224Z,0.90
2017-12-03T02:33:07.736Z,1.00
2017-12-03T02:35:35.218Z,0.90
2017-12-03T02:38:02.721Z,0.90
2017-12-03T02:40:30.327Z,0.90
2017-12-03T02:42:57.831Z,0.80
2017-12-03T02:45:25.312Z,0.80
2017-12-03T02:47:53.584Z,0.80
2017-12-03T02:50:21.085Z,0.70
2017-12-03T02:52:48.583Z,0.70
2017-12-03T02:55:16.056Z,0.70
2017-12-03T02:57:44.339Z,0.60
2017-12-03T03:00:11.824Z,0.60
2017-12-03T03:02:39.303Z,0.60
2017-12-03T03:05:06.805Z,0.60
2017-12-03T03:07:35.059Z,0.60
2017-12-03T03:10:02.563Z,0.50
2017-12-03T03:12:30.803Z,0.50
2017-12-03T03:14:58.307Z,0.50
2017-12-03T03:17:25.788Z,0.50
2017-12-03T03:19:54.120Z,0.60
2017-12-03T03:22:21.602Z,0.50
2017-12-03T03:24:49.871Z,0.70
2017-12-03T03:27:17.363Z,0.70
2017-12-03T03:29:44.872Z,0.70
2017-12-03T03:32:12.355Z,0.70
2017-12-03T03:34:40.631Z,0.70
2017-12-03T03:37:08.137Z,0.60
2017-12-03T03:39:35.644Z,0.80
2017-12-03T03:42:03.132Z,0.80
2017-12-03T03:44:30.636Z,0.80
2017-12-03T03:46:58.120Z,0.80
2017-12-03T03:49:25.620Z,0.80
2017-12-03T03:51:53.108Z,0.80
2017-12-03T03:54:20.608Z,0.80
2017-12-03T03:56:48.851Z,0.80
2017-12-03T03:59:16.336Z,0.70
2017-12-03T04:01:43.831Z,0.70
2017-12-03T04:04:12.072Z,0.70
2017-12-03T04:06:39.568Z,0.60
2017-12-03T04:09:07.048Z,0.70
2017-12-03T04:11:34.549Z,0.60
2017-12-03T04:14:02.041Z,0.60
2017-12-03T04:16:29.565Z,0.60
2017-12-03T04:18:57.819Z,0.60
2017-12-03T04:21:25.335Z,0.50
2017-12-03T04:23:53.585Z,0.50
2017-12-03T04:26:21.091Z,0.40
2017-12-03T04:28:48.580Z,0.50
2017-12-03T04:31:16.081Z,0.40
2017-12-03T04:33:43.567Z,0.30
2017-12-03T04:36:11.085Z,0.30
2017-12-03T04:38:38.559Z,0.30
2017-12-03T04:41:06.059Z,0.20
2017-12-03T04:43:33.544Z,0.20
2017-12-03T04:46:01.047Z,0.20
2017-12-03T04:48:29.299Z,0.30
2017-12-03T04:50:56.796Z,0.20
2017-12-03T04:53:24.275Z,0.30
2017-12-03T04:55:52.559Z,0.30
2017-12-03T04:58:20.811Z,0.30
2017-12-03T05:00:48.310Z,0.20
2017-12-03T05:03:15.824Z,0.30
2017-12-03T05:05:43.304Z,0.30
2017-12-03T05:08:10.803Z,0.30
2017-12-03T05:10:38.283Z,0.30
2017-12-03T05:13:05.774Z,0.30
2017-12-03T05:15:34.020Z,0.20
2017-12-03T05:18:01.536Z,0.20
2017-12-03T05:20:29.780Z,0.30
2017-12-03T05:22:57.280Z,0.20
2017-12-03T05:25:25.523Z,0.30
2017-12-03T05:27:53.020Z,0.20
2017-12-03T05:30:20.520Z,0.20
2017-12-03T05:32:48.791Z,0.20
2017-12-03T05:35:16.270Z,0.20
2017-12-03T05:37:44.929Z,0.30
2017-12-03T05:40:12.423Z,0.30
2017-12-03T05:42:39.931Z,0.30
2017-12-03T05:45:07.415Z,0.30
2017-12-03T05:47:34.937Z,0.20
2017-12-03T05:50:02.429Z,0.30
2017-12-03T05:52:29.932Z,0.40
2017-12-03T05:54:57.435Z,0.30
2017-12-03T05:57:24.936Z,0.30
2017-12-03T05:59:53.189Z,0.20
2017-12-03T06:02:20.696Z,0.20
2017-12-03T06:04:48.944Z,0.20
2017-12-03T06:07:16.452Z,0.10
2017-12-03T06:09:44.695Z,0.20
2017-12-03T06:12:12.200Z,0.20
2017-12-03T06:14:39.679Z,0.20
2017-12-03T06:17:07.924Z,0.20
2017-12-03T06:19:35.435Z,0.10
2017-12-03T06:22:03.694Z,0.20
2017-12-03T06:24:31.192Z,0.10
2017-12-03T06:26:59.440Z,0.20
2017-12-03T06:29:26.939Z,0.20
2017-12-03T06:31:54.424Z,0.20
2017-12-03T06:34:22.688Z,0.20
2017-12-03T06:36:50.167Z,0.10
2017-12-03T06:39:17.665Z,0.20
2017-12-03T06:41:45.196Z,0.20
2017-12-03T06:44:12.699Z,0.10
2017-12-03T06:46:40.949Z,0.00
2017-12-03T06:49:08.455Z,0.00
2017-12-03T06:51:36.699Z,0.00
2017-12-03T06:54:04.224Z,0.00
2017-12-03T06:56:31.703Z,0.00
2017-12-03T06:58:59.203Z,0.10
2017-12-03T07:01:52.323Z,0.10
2017-12-03T07:04:20.592Z,0.10
2017-12-03T07:06:48.085Z,0.00
2017-12-03T07:09:16.355Z,0.10
2017-12-03T07:11:43.826Z,0.10
2017-12-03T07:14:11.323Z,0.10
2017-12-03T07:16:38.803Z,0.00
2017-12-03T07:19:06.299Z,0.00
2017-12-03T07:21:33.796Z,-0.20
2017-12-03T07:24:01.304Z,-0.10
2017-12-03T07:26:28.793Z,0.00
2017-12-03T07:28:56.296Z,0.00
2017-12-03T07:31:23.824Z,0.00
2017-12-03T07:33:52.051Z,0.00
2017-12-03T07:36:19.532Z,0.00
2017-12-03T07:38:47.039Z,0.00
2017-12-03T07:41:14.537Z,0.00
2017-12-03T07:43:42.043Z,-0.10
2017-12-03T07:46:09.531Z,-0.10
2017-12-03T07:48:37.808Z,0.00
2017-12-03T07:51:06.900Z,0.00
2017-12-03T07:53:35.392Z,0.00
2017-12-03T07:56:02.876Z,0.00
2017-12-03T07:58:30.400Z,0.10
2017-12-03T08:00:57.883Z,0.10
2017-12-03T08:03:25.383Z,0.10
2017-12-03T08:05:52.867Z,0.10
2017-12-03T08:08:20.367Z,0.10
2017-12-03T08:10:47.858Z,0.00
2017-12-03T08:13:15.355Z,0.00
2017-12-03T08:15:42.844Z,-0.10
2017-12-03T08:18:10.340Z,0.00
2017-12-03T08:20:38.587Z,-0.10
2017-12-03T08:23:06.090Z,-0.10
2017-12-03T08:25:34.359Z,-0.10
2017-12-03T08:28:01.890Z,-0.20
2017-12-03T08:30:29.371Z,-0.10
2017-12-03T08:32:56.883Z,-0.30
2017-12-03T08:35:25.131Z,-0.30
2017-12-03T08:37:52.631Z,-0.40
2017-12-03T08:40:20.111Z,-0.40
2017-12-03T08:42:48.376Z,-0.30
2017-12-03T08:45:15.856Z,-0.40
2017-12-03T08:47:43.371Z,-0.30
2017-12-03T08:50:11.762Z,-0.30
2017-12-03T08:52:39.263Z,-0.40
2017-12-03T08:55:06.772Z,-0.30
2017-12-03T08:57:35.019Z,-0.40
2017-12-03T09:00:02.533Z,-0.40
2017-12-03T09:02:30.795Z,-0.30
2017-12-03T09:04:58.312Z,-0.40
2017-12-03T09:07:25.814Z,-0.40
2017-12-03T09:09:53.344Z,-0.30
2017-12-03T09:12:20.843Z,-0.30
2017-12-03T09:14:48.352Z,-0.30
2017-12-03T09:17:15.839Z,-0.30
2017-12-03T09:19:44.296Z,-0.30
2017-12-03T09:22:11.943Z,-0.30
2017-12-03T09:24:39.745Z,-0.20
2017-12-03T09:27:08.061Z,-0.20
2017-12-03T09:29:35.570Z,-0.20
2017-12-03T09:32:12.751Z,-0.20
2017-12-03T09:34:41.035Z,-0.30
2017-12-03T09:37:09.283Z,-0.20
2017-12-03T09:39:36.795Z,-0.30
2017-12-03T09:42:05.075Z,-0.30
2017-12-03T09:44:33.349Z,-0.30
2017-12-03T09:47:00.835Z,-0.40
2017-12-03T09:49:29.099Z,-0.50
2017-12-03T09:51:56.591Z,-0.60
2017-12-03T09:54:24.115Z,-0.50
2017-12-03T09:56:51.609Z,-0.40
2017-12-03T09:59:19.125Z,-0.30
2017-12-03T10:01:46.616Z,-0.20
2017-12-03T10:04:14.121Z,-0.30
2017-12-03T10:06:41.607Z,-0.40
2017-12-03T10:09:09.125Z,-0.40
2017-12-03T10:11:36.637Z,-0.40
2017-12-03T10:14:04.211Z,-0.40
2017-12-03T10:16:32.489Z,-0.50
2017-12-03T10:18:59.996Z,-0.50
2017-12-03T10:21:28.251Z,-0.60
2017-12-03T10:23:55.761Z,-0.60
2017-12-03T10:26:23.243Z,-0.50
2017-12-03T10:28:50.752Z,-0.50
2017-12-03T10:31:18.229Z,-0.40
2017-12-03T10:33:45.751Z,-0.50
2017-12-03T10:36:13.246Z,-0.50
2017-12-03T10:38:41.754Z,-0.40
2017-12-03T10:41:09.245Z,-0.40
2017-12-03T10:43:36.786Z,-0.40
2017-12-03T10:46:04.284Z,-0.40
2017-12-03T10:48:31.788Z,-0.30
2017-12-03T10:50:59.284Z,-0.40
2017-12-03T10:53:26.799Z,-0.30
2017-12-03T10:55:54.288Z,-0.30
2017-12-03T10:58:22.563Z,-0.30
2017-12-03T11:00:50.824Z,-0.30
2017-12-03T11:03:18.311Z,-0.40
2017-12-03T11:05:45.846Z,-0.50
2017-12-03T11:08:13.336Z,-0.40
2017-12-03T11:10:40.848Z,-0.40
2017-12-03T11:13:09.113Z,-0.30
2017-12-03T11:15:36.648Z,-0.40
2017-12-03T11:18:04.142Z,-0.30
2017-12-03T11:20:31.647Z,-0.20
2017-12-03T11:22:59.939Z,-0.30
2017-12-03T11:25:28.211Z,-0.30
2017-12-03T11:27:56.459Z,-0.30
2017-12-03T11:30:23.971Z,-0.40
2017-12-03T11:32:52.224Z,-0.40
2017-12-03T11:35:19.731Z,-0.50
2017-12-03T11:37:47.984Z,-0.30
2017-12-03T11:40:15.488Z,-0.40
2017-12-03T11:42:43.742Z,-0.30
2017-12-03T11:45:11.263Z,-0.30
2017-12-03T11:47:38.742Z,-0.30
2017-12-03T11:50:06.253Z,-0.30
2017-12-03T11:52:33.748Z,-0.30
2017-12-03T11:55:01.259Z,-0.30
2017-12-03T11:57:28.794Z,-0.20
2017-12-03T11:59:56.278Z,-0.10
2017-12-03T12:02:23.760Z,-0.20
2017-12-03T12:04:51.268Z,-0.30
2017-12-03T12:07:19.107Z,-0.40
2017-12-03T12:09:46.632Z,-0.20
2017-12-03T12:12:14.117Z,-0.20
2017-12-03T12:14:41.623Z,-0.20
2017-12-03T12:17:09.099Z,-0.20
2017-12-03T12:19:36.608Z,-0.30
2017-12-03T12:22:04.096Z,-0.30
2017-12-03T12:24:31.619Z,-0.20
2017-12-03T12:26:59.122Z,-0.20
2017-12-03T12:29:26.632Z,-0.30
2017-12-03T12:31:54.126Z,-0.30
2017-12-03T12:34:21.634Z,-0.30
2017-12-03T12:36:49.940Z,-0.30
2017-12-03T12:39:17.452Z,-0.40
2017-12-03T12:41:45.712Z,-0.30
2017-12-03T12:44:13.987Z,-0.20
2017-12-03T12:46:41.476Z,-0.30
2017-12-03T12:49:09.748Z,-0.30
2017-12-03T12:51:37.236Z,-0.30
2017-12-03T12:54:05.512Z,-0.30
2017-12-03T12:56:33.767Z,-0.30
2017-12-03T12:59:01.272Z,-0.40
2017-12-03T13:01:29.525Z,-0.30
2017-12-03T13:03:57.031Z,-0.40
2017-12-03T13:06:25.285Z,-0.40
2017-12-03T13:08:52.795Z,-0.40
2017-12-03T13:11:21.066Z,-0.30
2017-12-03T13:13:48.562Z,-0.30
2017-12-03T13:16:16.087Z,-0.20
2017-12-03T13:18:43.569Z,-0.30
2017-12-03T13:21:11.076Z,-0.20
2017-12-03T13:23:38.599Z,-0.20
2017-12-03T13:26:06.121Z,-0.20
2017-12-03T13:28:33.619Z,-0.20
2017-12-03T13:31:01.124Z,-0.20
2017-12-03T13:33:28.615Z,-0.10
2017-12-03T13:35:56.919Z,-0.20
2017-12-03T13:38:25.155Z,-0.20
2017-12-03T13:40:52.680Z,-0.30
2017-12-03T13:43:20.176Z,-0.20
2017-12-03T13:45:47.684Z,-0.20
2017-12-03T13:48:15.180Z,-0.10
2017-12-03T13:50:43.447Z,-0.20
2017-12-03T13:53:10.936Z,-0.20
2017-12-03T13:55:39.208Z,-0.10
2017-12-03T13:58:06.687Z,-0.20
2017-12-03T14:00:34.955Z,-0.10
2017-12-03T14:03:02.448Z,-0.10
2017-12-03T14:05:29.951Z,0.00
2017-12-03T14:07:57.435Z,0.00
2017-12-03T14:10:24.940Z,0.00
2017-12-03T14:12:52.428Z,0.00
2017-12-03T14:15:20.695Z,0.10
2017-12-03T14:17:48.179Z,0.00
2017-12-03T14:20:16.457Z,-0.10
2017-12-03T14:22:43.939Z,-0.10
2017-12-03T14:25:12.212Z,0.00
2017-12-03T14:27:39.703Z,-0.10
2017-12-03T14:30:07.978Z,-0.10
2017-12-03T14:32:35.467Z,-0.20
2017-12-03T14:35:03.739Z,-0.10
2017-12-03T14:37:32.007Z,-0.10
2017-12-03T14:39:59.516Z,-0.20
2017-12-03T14:42:27.772Z,-0.10
2017-12-03T14:44:55.277Z,-0.20
2017-12-03T14:47:22.760Z,0.00
2017-12-03T14:49:50.272Z,-0.10
2017-12-03T14:52:17.781Z,-0.10
2017-12-03T14:54:46.068Z,-0.10
2017-12-03T14:57:14.353Z,-0.10
2017-12-03T14:59:42.643Z,-0.10
2017-12-03T15:02:10.900Z,-0.10
2017-12-03T15:04:38.420Z,-0.20
2017-12-03T15:07:05.904Z,-0.10
2017-12-03T15:09:33.428Z,-0.10
2017-12-03T15:12:04.762Z,0.00
2017-12-03T15:14:32.268Z,-0.10
2017-12-03T15:17:00.568Z,0.00
2017-12-03T15:19:28.084Z,-0.10
2017-12-03T15:21:55.567Z,0.00
2017-12-03T15:24:23.057Z,0.00
2017-12-03T15:26:50.562Z,0.00
2017-12-03T15:29:18.049Z,0.00
2017-12-03T15:31:45.547Z,0.00
2017-12-03T15:34:13.035Z,-0.10
2017-12-03T15:36:40.535Z,-0.10
2017-12-03T15:39:08.784Z,-0.10
2017-12-03T15:41:36.287Z,-0.10
2017-12-03T15:44:03.767Z,0.00
2017-12-03T15:46:31.268Z,0.00
2017-12-03T15:48:58.748Z,0.00
2017-12-03T15:51:26.252Z,0.00
2017-12-03T15:53:54.499Z,0.10
2017-12-03T15:56:22.018Z,0.00
2017-12-03T15:58:50.296Z,0.00
2017-12-03T16:01:18.579Z,0.10
2017-12-03T16:03:46.061Z,0.00
2017-12-03T16:06:14.328Z,0.00
2017-12-03T16:08:41.807Z,0.00
2017-12-03T16:11:09.332Z,0.00
2017-12-03T16:13:38.755Z,0.10
2017-12-03T16:16:09.324Z,0.00
2017-12-03T16:18:36.807Z,0.10
2017-12-03T16:21:06.308Z,0.10
2017-12-03T16:23:33.792Z,0.10
2017-12-03T16:26:02.075Z,0.10
2017-12-03T16:28:29.557Z,0.00
2017-12-03T16:30:57.059Z,0.10
2017-12-03T16:33:24.549Z,0.10
2017-12-03T16:35:52.132Z,0.00
2017-12-03T16:38:19.644Z,0.10
2017-12-03T16:40:47.996Z,0.10
2017-12-03T16:43:15.503Z,0.10
2017-12-03T16:45:43.809Z,0.10
2017-12-03T16:48:11.326Z,0.00
2017-12-03T16:50:38.833Z,0.10
2017-12-03T16:53:07.079Z,0.20
2017-12-03T16:55:35.587Z,0.10
2017-12-03T16:58:09.102Z,0.20
2017-12-03T17:00:40.151Z,0.10
2017-12-03T17:03:17.809Z,0.10
2017-12-03T17:05:46.072Z,0.10
2017-12-03T17:08:15.568Z,0.10
2017-12-03T17:10:44.064Z,0.10
2017-12-03T17:13:11.547Z,0.10
2017-12-03T17:15:39.046Z,0.10
2017-12-03T17:18:07.472Z,0.10
2017-12-03T17:20:34.971Z,0.10
2017-12-03T17:23:02.463Z,0.10
2017-12-03T17:25:31.786Z,0.20
2017-12-03T17:28:00.035Z,0.20
2017-12-03T17:30:27.532Z,0.10
2017-12-03T17:32:55.019Z,0.20
2017-12-03T17:35:23.292Z,0.10
2017-12-03T17:37:52.547Z,0.10
2017-12-03T17:40:20.047Z,0.00
2017-12-03T17:42:47.527Z,0.10
2017-12-03T17:45:15.031Z,0.00
2017-12-03T17:47:43.280Z,0.00
2017-12-03T17:50:10.793Z,0.00
2017-12-03T17:52:38.276Z,0.00
2017-12-03T17:55:05.784Z,-0.10
2017-12-03T17:57:33.284Z,-0.10
2017-12-03T18:00:01.540Z,0.00
2017-12-03T18:02:29.041Z,0.00
2017-12-03T18:04:57.284Z,0.10
2017-12-03T18:07:24.780Z,0.00
2017-12-03T18:09:52.260Z,0.10
2017-12-03T18:12:19.761Z,0.10
2017-12-03T18:14:47.243Z,0.00
2017-12-03T18:17:14.742Z,0.00
2017-12-03T18:19:42.227Z,0.00
2017-12-03T18:22:09.724Z,0.00
2017-12-03T18:24:37.971Z,0.00
2017-12-03T18:27:05.479Z,-0.10
2017-12-03T18:29:33.731Z,-0.10
2017-12-03T18:32:01.232Z,-0.20
2017-12-03T18:34:28.711Z,-0.10
2017-12-03T18:36:56.980Z,0.00
2017-12-03T18:39:24.463Z,0.00
2017-12-03T18:41:52.736Z,0.10
2017-12-03T18:44:20.478Z,0.10
2017-12-03T18:46:47.976Z,0.20
2017-12-03T18:49:15.467Z,0.20
2017-12-03T18:51:43.747Z,0.20
2017-12-03T18:54:11.236Z,0.10
2017-12-03T18:56:39.544Z,0.20
2017-12-03T18:59:07.043Z,0.10
2017-12-03T19:01:44.000Z,0.20
2017-12-03T19:04:11.514Z,0.30
2017-12-03T19:06:39.028Z,0.20
2017-12-03T19:09:07.280Z,0.20
2017-12-03T19:11:34.788Z,0.10
2017-12-03T19:14:02.273Z,0.20
2017-12-03T19:16:29.964Z,0.20
2017-12-03T19:18:57.486Z,0.20
2017-12-03T19:21:25.025Z,0.10
2017-12-03T19:23:52.548Z,0.10
2017-12-03T19:26:20.088Z,0.30
2017-12-03T19:28:47.579Z,0.30
2017-12-03T19:31:15.868Z,0.20
2017-12-03T19:33:44.136Z,0.30
2017-12-03T19:36:11.665Z,0.20
2017-12-03T19:38:39.196Z,0.30
2017-12-03T19:41:07.509Z,0.30
2017-12-03T19:43:35.026Z,0.20
2017-12-03T19:46:02.537Z,0.30
2017-12-03T19:48:30.955Z,0.40
2017-12-03T19:50:58.457Z,0.30
2017-12-03T19:53:25.968Z,0.40
2017-12-03T19:55:54.293Z,0.30
2017-12-03T19:58:21.812Z,0.20
2017-12-03T20:00:49.335Z,0.30
2017-12-03T20:03:16.834Z,0.20
2017-12-03T20:05:44.379Z,0.20
2017-12-03T20:08:11.891Z,0.30
2017-12-03T20:10:39.484Z,0.30
2017-12-03T20:13:07.016Z,0.30
2017-12-03T20:15:34.522Z,0.30
2017-12-03T20:18:17.802Z,0.20
2017-12-03T20:20:45.345Z,0.20
2017-12-03T20:23:12.873Z,0.30
2017-12-03T20:25:40.388Z,0.20
2017-12-03T20:28:07.899Z,0.20
2017-12-03T20:30:35.400Z,0.20
2017-12-03T20:33:02.921Z,0.20
2017-12-03T20:35:30.487Z,0.20
2017-12-03T20:37:58.012Z,0.30
2017-12-03T20:40:25.520Z,0.30
2017-12-03T20:42:53.819Z,0.40
2017-12-03T20:45:21.353Z,0.30
2017-12-03T20:47:48.904Z,0.40
2017-12-03T20:50:16.440Z,0.40
2017-12-03T20:52:43.974Z,0.40
2017-12-03T20:55:12.265Z,0.30
2017-12-03T20:57:40.563Z,0.30
2017-12-03T21:00:08.052Z,0.20
2017-12-03T21:02:35.560Z,0.30
2017-12-03T21:05:03.081Z,0.30
2017-12-03T21:07:30.628Z,0.30
2017-12-03T21:09:58.970Z,0.20
2017-12-03T21:12:26.476Z,0.10
2017-12-03T21:14:53.988Z,0.20
2017-12-03T21:17:32.739Z,0.20
2017-12-03T21:20:00.241Z,0.20
2017-12-03T21:22:27.782Z,0.20
2017-12-03T21:24:55.305Z,0.20
2017-12-03T21:27:23.597Z,0.30
2017-12-03T21:29:51.871Z,0.30
2017-12-03T21:32:19.382Z,0.30
2017-12-03T21:34:54.028Z,0.30
2017-12-03T21:37:21.531Z,0.30
2017-12-03T21:39:49.042Z,0.30
2017-12-03T21:42:18.303Z,0.30
2017-12-03T21:44:45.792Z,0.30
2017-12-03T21:47:13.316Z,0.40
2017-12-03T21:49:40.818Z,0.30
2017-12-03T21:52:18.678Z,0.30
2017-12-03T21:54:46.948Z,0.30
2017-12-03T21:57:14.472Z,0.30
2017-12-03T21:59:43.009Z,0.30
2017-12-03T22:02:10.528Z,0.30
2017-12-03T22:04:38.146Z,0.30
2017-12-03T22:07:05.632Z,0.40
2017-12-03T22:09:33.140Z,0.30
2017-12-03T22:12:00.702Z,0.30
2017-12-03T22:14:28.972Z,0.20
2017-12-03T22:16:57.242Z,0.20
2017-12-03T22:19:24.765Z,0.20
2017-12-03T22:21:52.265Z,0.20
2017-12-03T22:24:19.784Z,0.30
2017-12-03T22:26:47.283Z,0.30
2017-12-03T22:29:14.808Z,0.30
2017-12-03T22:31:43.088Z,0.30
2017-12-03T22:34:10.612Z,0.30
2017-12-03T22:36:38.193Z,0.30
2017-12-03T22:39:05.706Z,0.30
2017-12-03T22:41:33.188Z,0.30
2017-12-03T22:44:01.697Z,0.30
2017-12-03T22:46:29.204Z,0.30
2017-12-03T22:48:56.723Z,0.30
2017-12-03T22:51:24.991Z,0.40
2017-12-03T22:53:52.523Z,0.30
2017-12-03T22:56:20.020Z,0.40
2017-12-03T22:58:47.520Z,0.40
2017-12-03T23:01:15.811Z,0.40
2017-12-03T23:03:44.082Z,0.40
2017-12-03T23:06:12.378Z,0.40
2017-12-03T23:08:40.652Z,0.40
2017-12-03T23:11:08.256Z,0.40
2017-12-03T23:13:35.762Z,0.40
2017-12-03T23:16:03.264Z,0.30
2017-12-03T23:18:30.939Z,0.40
2017-12-03T23:20:58.469Z,0.40
2017-12-03T23:23:25.985Z,0.40
2017-12-03T23:25:53.508Z,0.40
2017-12-03T23:28:21.021Z,0.40
2017-12-03T23:30:48.585Z,0.40
2017-12-03T23:33:16.096Z,0.40
2017-12-03T23:35:43.621Z,0.40
2017-12-03T23:38:11.118Z,0.40
2017-12-03T23:40:39.396Z,0.40
2017-12-03T23:43:06.880Z,0.30
2017-12-03T23:51:33.740Z,0.50
2017-12-03T23:54:01.227Z,0.50
2017-12-03T23:56:28.740Z,0.50
2017-12-03T23:58:56.240Z,0.50
